createdAt,value
2023-04-11T00:01:29.665Z,11.90
2023-04-11T00:03:57.210Z,11.83
2023-04-11T00:06:27.952Z,11.82
2023-04-11T00:08:55.051Z,11.89
2023-04-11T00:11:22.008Z,11.91
2023-04-11T00:13:48.865Z,11.74
2023-04-11T00:16:16.841Z,11.88
2023-04-11T00:18:45.167Z,11.87
2023-04-11T00:21:12.040Z,11.90
2023-04-11T00:23:38.976Z,11.76
2023-04-11T00:26:06.308Z,11.75
2023-04-11T00:28:33.283Z,11.73
2023-04-11T00:31:00.209Z,11.73
2023-04-11T00:33:27.166Z,11.68
2023-04-11T00:35:54.060Z,11.64
2023-04-11T00:38:20.919Z,11.74
2023-04-11T00:40:47.852Z,11.82
2023-04-11T00:43:14.699Z,11.78
2023-04-11T00:45:41.569Z,11.79
2023-04-11T00:48:08.530Z,11.81
2023-04-11T00:50:40.130Z,11.84
2023-04-11T00:53:06.892Z,11.90
2023-04-11T00:55:34.221Z,11.97
2023-04-11T00:58:01.636Z,11.92
2023-04-11T01:00:33.036Z,11.97
2023-04-11T01:03:01.087Z,11.99
2023-04-11T01:05:30.554Z,12.03
2023-04-11T01:07:57.782Z,12.11
2023-04-11T01:10:25.593Z,12.10
2023-04-11T01:12:53.069Z,12.11
2023-04-11T01:15:19.863Z,12.15
2023-04-11T01:17:48.203Z,12.18
2023-04-11T01:20:15.188Z,12.19
2023-04-11T01:22:43.079Z,12.17
2023-04-11T01:25:09.945Z,12.22
2023-04-11T01:27:37.772Z,12.15
2023-04-11T01:30:05.796Z,12.14
2023-04-11T01:32:32.644Z,12.19
2023-04-11T01:35:00.192Z,12.18
2023-04-11T01:37:27.113Z,12.15
2023-04-11T01:39:53.952Z,12.14
2023-04-11T01:42:22.606Z,12.15
2023-04-11T01:44:51.438Z,12.15
2023-04-11T01:47:18.292Z,12.11
2023-04-11T01:49:44.944Z,12.15
2023-04-11T01:52:11.822Z,12.12
2023-04-11T01:54:38.552Z,12.10
2023-04-11T01:57:06.549Z,12.02
2023-04-11T01:59:33.401Z,11.97
2023-04-11T02:02:00.533Z,11.94
2023-04-11T02:04:27.582Z,11.97
2023-04-11T02:06:54.425Z,12.00
2023-04-11T02:09:21.194Z,12.01
2023-04-11T02:11:48.076Z,12.00
2023-04-11T02:14:14.876Z,12.03
2023-04-11T02:16:58.209Z,11.96
2023-04-11T02:19:26.036Z,11.99
2023-04-11T02:21:53.014Z,11.82
2023-04-11T02:24:19.758Z,11.81
2023-04-11T02:26:46.511Z,11.73
2023-04-11T02:29:13.426Z,11.76
2023-04-11T02:31:40.583Z,11.69
2023-04-11T02:34:07.468Z,11.71
2023-04-11T02:36:34.756Z,11.66
2023-04-11T02:39:01.414Z,11.43
2023-04-11T02:41:28.151Z,11.41
2023-04-11T02:43:56.201Z,11.23
2023-04-11T02:46:23.056Z,11.14
2023-04-11T02:48:49.965Z,10.96
2023-04-11T02:51:16.786Z,10.79
2023-04-11T02:53:43.493Z,10.56
2023-04-11T02:56:10.886Z,10.39
2023-04-11T02:58:41.979Z,10.22
2023-04-11T03:01:11.272Z,10.11
2023-04-11T03:03:41.614Z,10.15
2023-04-11T03:06:09.116Z,9.95
2023-04-11T03:08:36.168Z,9.90
2023-04-11T03:11:03.982Z,9.81
2023-04-11T03:13:30.759Z,9.74
2023-04-11T03:15:57.521Z,9.82
2023-04-11T03:18:24.350Z,9.75
2023-04-11T03:20:52.030Z,9.69
2023-04-11T03:23:18.800Z,9.66
2023-04-11T03:25:45.640Z,9.57
2023-04-11T03:28:12.512Z,9.62
2023-04-11T03:30:41.099Z,9.63
2023-04-11T03:33:08.629Z,9.65
2023-04-11T03:35:36.509Z,9.67
2023-04-11T03:38:03.882Z,9.62
2023-04-11T03:40:30.633Z,9.66
2023-04-11T03:42:59.863Z,9.62
2023-04-11T03:45:27.558Z,9.66
2023-04-11T03:47:54.573Z,9.60
2023-04-11T03:50:21.729Z,9.56
2023-04-11T03:52:48.423Z,9.48
2023-04-11T03:55:15.258Z,9.40
2023-04-11T03:57:42.210Z,9.33
2023-04-11T04:00:10.146Z,9.34
2023-04-11T04:02:36.879Z,9.32
2023-04-11T04:05:04.007Z,9.42
2023-04-11T04:07:31.871Z,9.45
2023-04-11T04:09:58.702Z,9.44
2023-04-11T04:12:26.335Z,9.44
2023-04-11T04:14:53.024Z,9.40
2023-04-11T04:17:19.791Z,9.32
2023-04-11T04:19:46.465Z,9.37
2023-04-11T04:22:13.280Z,9.31
2023-04-11T04:24:41.958Z,9.37
2023-04-11T04:27:11.658Z,9.35
2023-04-11T04:29:39.093Z,9.26
2023-04-11T04:32:12.889Z,9.27
2023-04-11T04:34:49.320Z,9.27
2023-04-11T04:37:23.126Z,9.27
2023-04-11T04:39:56.795Z,9.30
2023-04-11T04:42:25.288Z,9.23
2023-04-11T04:44:53.233Z,9.20
2023-04-11T04:47:23.596Z,9.21
2023-04-11T04:49:55.521Z,9.20
2023-04-11T04:52:24.409Z,9.19
2023-04-11T04:54:51.383Z,9.20
2023-04-11T04:57:18.166Z,9.18
2023-04-11T04:59:45.498Z,9.21
2023-04-11T05:02:12.360Z,9.20
2023-04-11T05:04:39.372Z,9.17
2023-04-11T05:07:06.373Z,9.20
2023-04-11T05:09:33.223Z,9.24
2023-04-11T05:12:01.250Z,9.29
2023-04-11T05:14:28.075Z,9.29
2023-04-11T05:16:54.877Z,9.25
2023-04-11T05:19:21.683Z,9.18
2023-04-11T05:21:48.445Z,9.21
2023-04-11T05:24:15.282Z,9.21
2023-04-11T05:26:42.247Z,9.20
2023-04-11T05:29:09.248Z,9.21
2023-04-11T05:31:36.016Z,9.21
2023-04-11T05:34:02.716Z,9.24
2023-04-11T05:36:29.945Z,9.25
2023-04-11T05:38:56.629Z,9.31
2023-04-11T05:41:23.395Z,9.29
2023-04-11T05:43:50.060Z,9.21
2023-04-11T05:46:17.604Z,9.23
2023-04-11T05:48:44.460Z,9.25
2023-04-11T05:51:11.225Z,9.27
2023-04-11T05:53:38.080Z,9.56
2023-04-11T05:56:05.030Z,9.31
2023-04-11T05:58:31.830Z,9.34
2023-04-11T06:00:59.775Z,9.21
2023-04-11T06:03:27.289Z,9.12
2023-04-11T06:05:54.482Z,9.19
2023-04-11T06:08:21.537Z,9.30
2023-04-11T06:10:48.375Z,9.33
2023-04-11T06:13:15.232Z,9.32
2023-04-11T06:15:42.063Z,9.23
2023-04-11T06:18:08.867Z,9.38
2023-04-11T06:20:35.704Z,9.35
2023-04-11T06:23:02.422Z,9.38
2023-04-11T06:25:29.172Z,9.48
2023-04-11T06:27:56.000Z,9.54
2023-04-11T06:30:22.911Z,9.48
2023-04-11T06:32:49.746Z,9.52
2023-04-11T06:35:16.683Z,9.60
2023-04-11T06:37:43.461Z,9.71
2023-04-11T06:40:10.625Z,9.71
2023-04-11T06:42:37.391Z,9.74
2023-04-11T06:45:06.112Z,9.79
2023-04-11T06:47:33.103Z,9.83
2023-04-11T06:49:59.959Z,9.82
2023-04-11T06:52:28.183Z,9.71
2023-04-11T06:54:55.248Z,9.67
2023-04-11T06:57:22.068Z,9.62
2023-04-11T06:59:48.768Z,9.59
2023-04-11T07:02:15.620Z,9.53
2023-04-11T07:04:42.587Z,9.65
2023-04-11T07:07:09.458Z,9.64
2023-04-11T07:09:36.339Z,9.67
2023-04-11T07:12:03.136Z,10.11
2023-04-11T07:14:29.977Z,9.64
2023-04-11T07:16:56.611Z,9.59
2023-04-11T07:19:23.473Z,9.65
2023-04-11T07:21:50.221Z,9.62
2023-04-11T07:24:18.689Z,9.74
2023-04-11T07:26:46.518Z,9.77
2023-04-11T07:29:14.898Z,9.76
2023-04-11T07:31:42.150Z,9.71
2023-04-11T07:34:08.952Z,9.97
2023-04-11T07:36:35.831Z,10.30
2023-04-11T07:39:04.176Z,10.64
2023-04-11T07:41:30.992Z,10.65
2023-04-11T07:43:57.955Z,10.69
2023-04-11T07:46:25.070Z,10.54
2023-04-11T07:48:51.952Z,10.55
2023-04-11T07:51:18.845Z,10.35
2023-04-11T07:53:45.655Z,10.24
2023-04-11T07:56:13.448Z,10.21
2023-04-11T07:58:40.342Z,10.09
2023-04-11T08:01:18.927Z,10.27
2023-04-11T08:03:46.087Z,10.73
2023-04-11T08:06:13.019Z,10.96
2023-04-11T08:08:39.857Z,11.25
2023-04-11T08:11:06.962Z,11.46
2023-04-11T08:13:33.850Z,11.22
2023-04-11T08:16:00.855Z,11.17
2023-04-11T08:18:27.626Z,11.31
2023-04-11T08:20:54.364Z,11.16
2023-04-11T08:23:21.634Z,10.99
2023-04-11T08:25:48.371Z,10.81
2023-04-11T08:28:15.516Z,11.20
2023-04-11T08:30:42.535Z,11.25
2023-04-11T08:33:10.134Z,11.26
2023-04-11T08:35:37.842Z,10.97
2023-04-11T08:38:04.578Z,10.96
2023-04-11T08:40:31.461Z,11.01
2023-04-11T08:42:59.805Z,10.80
2023-04-11T08:45:27.202Z,10.82
2023-04-11T08:47:54.344Z,10.90
2023-04-11T08:50:21.251Z,11.04
2023-04-11T08:52:50.021Z,11.08
2023-04-11T08:55:16.731Z,11.10
2023-04-11T08:57:43.906Z,11.13
2023-04-11T09:00:14.143Z,11.08
2023-04-11T09:02:59.229Z,10.97
2023-04-11T09:05:40.667Z,10.86
2023-04-11T09:08:09.775Z,11.07
2023-04-11T09:10:38.395Z,11.39
2023-04-11T09:13:34.463Z,10.94
2023-04-11T09:16:12.403Z,10.78
2023-04-11T09:18:43.647Z,10.72
2023-04-11T09:21:13.427Z,11.13
2023-04-11T09:23:40.729Z,11.38
2023-04-11T09:26:09.227Z,11.71
2023-04-11T09:28:53.611Z,11.89
2023-04-11T09:31:22.003Z,12.10
2023-04-11T09:33:59.871Z,12.20
2023-04-11T09:36:27.333Z,12.31
2023-04-11T09:38:54.450Z,11.96
2023-04-11T09:41:32.222Z,12.63
2023-04-11T09:43:59.748Z,13.83
2023-04-11T09:46:26.694Z,13.40
2023-04-11T09:48:57.617Z,13.03
2023-04-11T09:51:35.871Z,13.25
2023-04-11T09:54:05.229Z,13.34
2023-04-11T09:56:34.364Z,12.72
2023-04-11T09:59:02.814Z,12.18
2023-04-11T10:01:29.665Z,11.10
2023-04-11T10:03:57.436Z,10.72
2023-04-11T10:06:34.985Z,10.79
2023-04-11T10:09:11.522Z,10.55
2023-04-11T10:11:43.293Z,10.53
2023-04-11T10:14:29.951Z,10.52
2023-04-11T10:17:20.604Z,10.21
2023-04-11T10:19:56.624Z,10.03
2023-04-11T10:22:43.123Z,9.71
2023-04-11T10:25:17.578Z,9.84
2023-04-11T10:28:01.431Z,10.08
2023-04-11T10:30:49.108Z,10.13
2023-04-11T10:33:21.095Z,10.31
2023-04-11T10:36:10.240Z,10.08
2023-04-11T10:38:43.794Z,10.22
2023-04-11T10:41:22.890Z,10.19
2023-04-11T10:43:50.199Z,10.27
2023-04-11T10:46:25.415Z,10.84
2023-04-11T10:48:59.817Z,11.76
2023-04-11T10:51:28.238Z,11.90
2023-04-11T10:53:59.587Z,12.21
2023-04-11T10:56:45.900Z,11.94
2023-04-11T10:59:31.502Z,11.88
2023-04-11T11:02:01.453Z,11.41
2023-04-11T11:04:36.261Z,11.45
2023-04-11T11:07:05.382Z,11.52
2023-04-11T11:09:33.907Z,11.64
2023-04-11T11:12:14.989Z,11.75
2023-04-11T11:14:46.864Z,12.07
2023-04-11T11:17:14.855Z,11.99
2023-04-11T11:19:46.177Z,12.28
2023-04-11T11:22:25.949Z,13.76
2023-04-11T11:24:53.349Z,14.48
2023-04-11T11:27:24.446Z,13.27
2023-04-11T11:29:51.878Z,12.92
2023-04-11T11:32:29.238Z,12.20
2023-04-11T11:34:57.847Z,12.56
2023-04-11T11:37:25.248Z,12.12
2023-04-11T11:39:52.627Z,11.99
2023-04-11T11:42:19.723Z,12.06
2023-04-11T11:44:46.502Z,11.93
2023-04-11T11:47:16.605Z,11.84
2023-04-11T11:49:56.141Z,12.05
2023-04-11T11:52:37.520Z,12.11
2023-04-11T11:55:08.729Z,12.19
2023-04-11T11:57:37.527Z,12.86
2023-04-11T12:00:10.220Z,13.91
2023-04-11T12:02:39.353Z,14.78
2023-04-11T12:05:07.589Z,15.85
2023-04-11T12:07:38.428Z,15.12
2023-04-11T12:10:08.182Z,15.75
2023-04-11T12:12:36.693Z,14.65
2023-04-11T12:15:26.561Z,14.33
2023-04-11T12:17:54.960Z,13.89
2023-04-11T12:20:26.552Z,13.65
2023-04-11T12:22:55.050Z,13.26
2023-04-11T12:25:23.190Z,13.90
2023-04-11T12:27:50.023Z,14.48
2023-04-11T12:30:16.900Z,14.12
2023-04-11T12:32:44.646Z,14.05
2023-04-11T12:35:12.836Z,13.69
2023-04-11T12:37:39.932Z,13.56
2023-04-11T12:40:13.155Z,13.78
2023-04-11T12:45:12.068Z,14.17
2023-04-11T12:47:39.185Z,14.40
2023-04-11T12:50:07.249Z,14.75
2023-04-11T12:52:34.724Z,15.28
2023-04-11T12:55:01.515Z,15.85
2023-04-11T12:57:28.298Z,15.99
2023-04-11T12:59:55.131Z,16.12
2023-04-11T13:02:22.129Z,15.70
2023-04-11T13:04:54.496Z,15.43
2023-04-11T13:07:21.940Z,15.60
2023-04-11T13:09:49.540Z,15.71
2023-04-11T13:12:16.501Z,15.55
2023-04-11T13:14:43.423Z,14.77
2023-04-11T13:17:10.298Z,14.26
2023-04-11T13:19:37.298Z,14.17
2023-04-11T13:22:04.097Z,14.33
2023-04-11T13:24:31.996Z,14.39
2023-04-11T13:26:59.061Z,13.89
2023-04-11T13:29:25.929Z,13.86
2023-04-11T13:31:52.894Z,13.69
2023-04-11T13:34:21.219Z,13.27
2023-04-11T13:36:48.071Z,13.17
2023-04-11T13:39:14.895Z,12.88
2023-04-11T13:41:41.838Z,12.49
2023-04-11T13:44:08.605Z,12.03
2023-04-11T13:46:35.350Z,11.59
2023-04-11T13:49:02.122Z,11.53
2023-04-11T13:51:28.838Z,11.29
2023-04-11T13:53:55.755Z,11.02
2023-04-11T13:56:23.286Z,10.88
2023-04-11T13:58:50.714Z,10.95
2023-04-11T14:01:20.142Z,10.96
2023-04-11T14:03:47.911Z,10.84
2023-04-11T14:06:14.774Z,10.90
2023-04-11T14:08:41.637Z,10.70
2023-04-11T14:11:08.484Z,10.71
2023-04-11T14:13:35.381Z,10.49
2023-04-11T14:16:09.009Z,10.51
2023-04-11T14:18:36.559Z,10.54
2023-04-11T14:21:05.784Z,10.42
2023-04-11T14:23:32.526Z,10.40
2023-04-11T14:25:59.310Z,10.25
2023-04-11T14:28:27.044Z,10.38
2023-04-11T14:30:55.657Z,10.34
2023-04-11T14:33:23.148Z,9.88
2023-04-11T14:35:51.075Z,10.05
2023-04-11T14:38:17.848Z,10.20
2023-04-11T14:40:45.014Z,10.07
2023-04-11T14:43:12.528Z,10.12
2023-04-11T14:45:39.490Z,9.94
2023-04-11T14:48:06.704Z,10.35
2023-04-11T14:50:34.077Z,9.89
2023-04-11T14:53:01.111Z,9.94
2023-04-11T14:55:28.075Z,9.83
2023-04-11T14:57:56.514Z,9.62
2023-04-11T15:00:24.730Z,9.61
2023-04-11T15:02:54.062Z,9.65
2023-04-11T15:05:22.561Z,9.63
2023-04-11T15:07:51.587Z,9.65
2023-04-11T15:10:24.480Z,9.61
2023-04-11T15:12:51.276Z,9.64
2023-04-11T15:15:18.430Z,9.61
2023-04-11T15:17:47.532Z,9.36
2023-04-11T15:20:15.140Z,9.47
2023-04-11T15:22:44.232Z,9.56
2023-04-11T15:25:13.431Z,9.47
2023-04-11T15:27:41.212Z,9.51
2023-04-11T15:30:08.873Z,9.53
2023-04-11T15:32:36.069Z,9.67
2023-04-11T15:35:02.882Z,9.61
2023-04-11T15:37:29.736Z,9.50
2023-04-11T15:39:57.815Z,9.31
2023-04-11T15:42:24.976Z,9.34
2023-04-11T15:44:51.857Z,9.39
2023-04-11T15:47:18.973Z,9.40
2023-04-11T15:49:46.127Z,9.32
2023-04-11T15:52:13.030Z,9.62
2023-04-11T15:54:39.951Z,9.48
2023-04-11T15:57:06.761Z,9.47
2023-04-11T15:59:33.883Z,9.77
2023-04-11T16:02:00.807Z,10.35
2023-04-11T16:04:29.962Z,10.48
2023-04-11T16:06:56.986Z,10.48
2023-04-11T16:09:24.146Z,10.49
2023-04-11T16:11:50.871Z,9.96
2023-04-11T16:14:17.712Z,9.96
2023-04-11T16:16:46.644Z,10.04
2023-04-11T16:19:13.602Z,9.76
2023-04-11T16:21:40.454Z,9.65
2023-04-11T16:24:07.773Z,9.55
2023-04-11T16:26:35.185Z,9.48
2023-04-11T16:29:03.444Z,9.69
2023-04-11T16:31:31.663Z,9.65
2023-04-11T16:33:58.984Z,9.46
2023-04-11T16:36:26.912Z,9.52
2023-04-11T16:38:53.964Z,9.47
2023-04-11T16:41:20.900Z,9.50
2023-04-11T16:43:47.864Z,9.44
2023-04-11T16:46:15.485Z,9.30
2023-04-11T16:48:43.161Z,9.07
2023-04-11T16:51:11.313Z,9.04
2023-04-11T16:53:39.250Z,8.88
2023-04-11T16:56:06.429Z,9.05
2023-04-11T16:58:33.687Z,9.10
2023-04-11T17:01:01.379Z,8.92
2023-04-11T17:03:28.775Z,9.06
2023-04-11T17:05:55.997Z,9.19
2023-04-11T17:08:23.034Z,9.30
2023-04-11T17:10:49.872Z,9.05
2023-04-11T17:13:18.707Z,8.76
2023-04-11T17:15:46.364Z,8.91
2023-04-11T17:18:14.845Z,9.03
2023-04-11T17:20:43.604Z,8.96
2023-04-11T17:23:10.659Z,9.18
2023-04-11T17:25:37.486Z,9.06
2023-04-11T17:28:04.518Z,8.92
2023-04-11T17:30:32.246Z,9.00
2023-04-11T17:32:59.797Z,8.89
2023-04-11T17:35:29.920Z,8.78
2023-04-11T17:37:56.812Z,8.88
2023-04-11T17:40:23.926Z,8.80
2023-04-11T17:42:51.303Z,8.93
2023-04-11T17:45:19.372Z,8.72
2023-04-11T17:47:47.765Z,8.73
2023-04-11T17:50:16.074Z,8.79
2023-04-11T17:52:45.006Z,8.77
2023-04-11T17:55:13.671Z,8.51
2023-04-11T17:57:41.021Z,8.51
2023-04-11T18:00:24.232Z,8.61
2023-04-11T18:02:54.638Z,8.52
2023-04-11T18:05:24.872Z,8.43
2023-04-11T18:07:54.267Z,8.39
2023-04-11T18:10:22.029Z,8.48
2023-04-11T18:12:53.819Z,8.33
2023-04-11T18:15:25.427Z,8.36
2023-04-11T18:17:52.237Z,8.32
2023-04-11T18:20:20.080Z,8.32
2023-04-11T18:22:50.237Z,8.32
2023-04-11T18:25:17.774Z,8.26
2023-04-11T18:27:45.632Z,8.38
2023-04-11T18:30:14.339Z,8.38
2023-04-11T18:32:47.206Z,8.36
2023-04-11T18:35:16.081Z,8.35
2023-04-11T18:37:42.846Z,8.37
2023-04-11T18:40:14.218Z,8.37
2023-04-11T18:42:44.342Z,8.30
2023-04-11T18:45:12.200Z,8.33
2023-04-11T18:47:41.508Z,8.26
2023-04-11T18:50:08.993Z,8.29
2023-04-11T18:52:36.014Z,8.22
2023-04-11T18:55:03.426Z,8.26
2023-04-11T18:57:34.442Z,8.20
2023-04-11T19:00:12.900Z,8.23
2023-04-11T19:02:44.541Z,8.26
2023-04-11T19:05:14.651Z,8.15
2023-04-11T19:07:42.741Z,8.16
2023-04-11T19:10:11.218Z,8.11
2023-04-11T19:12:38.569Z,8.12
2023-04-11T19:15:07.760Z,8.14
2023-04-11T19:17:38.867Z,7.90
2023-04-11T19:20:12.102Z,7.89
2023-04-11T19:22:42.758Z,7.84
2023-04-11T19:25:11.128Z,7.74
2023-04-11T19:27:42.460Z,7.74
2023-04-11T19:30:11.343Z,7.69
2023-04-11T19:32:40.922Z,7.73
2023-04-11T19:35:10.462Z,7.62
2023-04-11T19:37:38.057Z,7.67
2023-04-11T19:40:24.332Z,7.53
2023-04-11T19:42:51.555Z,7.59
2023-04-11T19:45:18.858Z,7.44
2023-04-11T19:47:46.370Z,7.26
2023-04-11T19:50:13.768Z,7.32
2023-04-11T19:52:42.828Z,7.40
2023-04-11T19:55:10.872Z,7.25
2023-04-11T19:57:38.980Z,7.23
2023-04-11T20:00:14.504Z,7.16
2023-04-11T20:02:44.794Z,7.13
2023-04-11T20:05:13.869Z,7.16
2023-04-11T20:07:42.461Z,7.17
2023-04-11T20:10:10.745Z,7.22
2023-04-11T20:12:37.683Z,7.19
2023-04-11T20:15:04.845Z,7.10
2023-04-11T20:17:31.751Z,7.19
2023-04-11T20:19:58.669Z,7.13
2023-04-11T20:22:25.716Z,7.11
2023-04-11T20:24:52.491Z,7.13
2023-04-11T20:27:19.747Z,7.15
2023-04-11T20:29:47.149Z,7.14
2023-04-11T20:32:14.014Z,7.08
2023-04-11T20:34:40.935Z,6.98
2023-04-11T20:37:08.955Z,6.96
2023-04-11T20:39:35.884Z,7.01
2023-04-11T20:42:02.694Z,6.95
2023-04-11T20:44:29.515Z,6.82
2023-04-11T20:46:57.095Z,6.78
2023-04-11T20:49:28.185Z,6.88
2023-04-11T20:51:54.992Z,6.78
2023-04-11T20:54:21.905Z,6.72
2023-04-11T20:56:48.826Z,6.74
2023-04-11T20:59:15.730Z,6.75
2023-04-11T21:01:43.995Z,6.64
2023-04-11T21:04:11.429Z,6.66
2023-04-11T21:06:38.477Z,6.61
2023-04-11T21:09:05.840Z,6.58
2023-04-11T21:11:33.069Z,6.43
2023-04-11T21:13:59.941Z,6.42
2023-04-11T21:16:26.851Z,6.38
2023-04-11T21:18:53.674Z,6.26
2023-04-11T21:21:20.632Z,6.19
2023-04-11T21:23:47.376Z,6.20
2023-04-11T21:26:14.244Z,6.13
2023-04-11T21:28:41.020Z,6.10
2023-04-11T21:31:07.874Z,6.13
2023-04-11T21:33:34.725Z,6.10
2023-04-11T21:36:01.702Z,6.14
2023-04-11T21:38:29.054Z,5.99
2023-04-11T21:40:56.881Z,6.04
2023-04-11T21:43:24.048Z,5.95
2023-04-11T21:45:50.903Z,5.92
2023-04-11T21:48:17.811Z,5.86
2023-04-11T21:50:45.758Z,5.77
2023-04-11T21:53:14.011Z,5.74
2023-04-11T21:55:47.356Z,5.64
2023-04-11T21:58:27.993Z,5.59
2023-04-11T22:00:56.323Z,5.55
2023-04-11T22:03:23.787Z,5.60
2023-04-11T22:05:52.242Z,5.65
2023-04-11T22:08:22.858Z,5.50
2023-04-11T22:10:50.755Z,5.47
2023-04-11T22:13:19.280Z,5.39
2023-04-11T22:15:48.846Z,5.28
2023-04-11T22:18:15.795Z,5.19
2023-04-11T22:20:43.822Z,5.12
2023-04-11T22:23:13.187Z,5.07
2023-04-11T22:25:44.002Z,5.04
2023-04-11T22:28:18.265Z,5.30
2023-04-11T22:30:46.562Z,5.07
2023-04-11T22:33:16.809Z,5.03
2023-04-11T22:35:50.529Z,4.90
2023-04-11T22:38:17.331Z,4.96
2023-04-11T22:40:44.096Z,4.91
2023-04-11T22:43:11.051Z,4.90
2023-04-11T22:45:38.045Z,4.87
2023-04-11T22:48:06.263Z,4.84
2023-04-11T22:50:37.341Z,4.87
2023-04-11T22:53:04.824Z,4.90
2023-04-11T22:55:35.411Z,4.83
2023-04-11T22:58:03.237Z,4.80
2023-04-11T23:00:31.387Z,4.95
2023-04-11T23:02:59.891Z,4.88
2023-04-11T23:05:26.853Z,4.86
2023-04-11T23:07:53.609Z,4.88
2023-04-11T23:10:20.402Z,4.88
2023-04-11T23:12:48.170Z,4.74
2023-04-11T23:15:15.153Z,4.73
2023-04-11T23:17:41.986Z,4.65
2023-04-11T23:20:13.788Z,4.67
2023-04-11T23:22:42.315Z,4.73
2023-04-11T23:25:14.342Z,4.74
2023-04-11T23:27:43.361Z,4.57
2023-04-11T23:30:11.893Z,4.49
2023-04-11T23:32:39.793Z,4.47
2023-04-11T23:35:07.603Z,4.47
2023-04-11T23:37:34.362Z,4.46
2023-04-11T23:40:07.372Z,4.39
2023-04-11T23:42:34.153Z,4.36
2023-04-11T23:45:00.941Z,4.34
2023-04-11T23:47:27.856Z,4.38
2023-04-11T23:49:54.715Z,4.39
2023-04-11T23:52:21.658Z,4.37
2023-04-11T23:54:49.822Z,4.19
2023-04-11T23:57:16.950Z,4.08
2023-04-11T23:59:43.980Z,3.99
